Time;durP1;ratioP1;P1;durP2;ratioP2;P2;SDS_P1;SDS_P2;PMS_P1;PMS_P2;Temp;Humidity;BMP_temperature;BMP_pressure;BME280_temperature;BME280_humidity;BME280_pressure;Samples;Min_cycle;Max_cycle;Signal;HPM_P1;HPM_P2
2023/01/31 00:00:03;;;;;;;4.22;1.08;;;;;;;7.76;23.52;102251.06;5012182;28;20057;-70
2023/01/31 00:02:32;;;;;;;1.38;0.85;;;;;;;7.79;24.08;102242.63;5000088;28;20456;-69
2023/01/31 00:05:01;;;;;;;8.63;0.95;;;;;;;7.79;23.68;102245.22;5012996;28;20388;-70
2023/01/31 00:07:30;;;;;;;2.10;1.25;;;;;;;7.75;23.90;102242.44;5010466;28;20120;-70
2023/01/31 00:09:58;;;;;;;2.88;1.00;;;;;;;7.76;24.39;102239.09;5010834;28;20049;-70
2023/01/31 00:12:27;;;;;;;2.50;1.05;;;;;;;7.78;24.76;102238.28;5012113;28;20528;-70
2023/01/31 00:14:57;;;;;;;2.33;0.82;;;;;;;7.74;24.99;102232.94;5013796;28;20046;-71
2023/01/31 00:17:25;;;;;;;0.60;0.55;;;;;;;7.73;25.59;102231.16;5007314;28;20046;-71
2023/01/31 00:19:54;;;;;;;3.25;0.85;;;;;;;7.72;25.18;102224.22;5007149;28;20042;-70
2023/01/31 00:22:22;;;;;;;1.23;0.90;;;;;;;7.70;24.15;102218.06;5009658;28;20502;-70
2023/01/31 00:24:51;;;;;;;1.90;0.95;;;;;;;7.60;28.01;102223.41;5008715;28;20073;-70
2023/01/31 00:27:20;;;;;;;0.65;0.63;;;;;;;7.56;25.28;102216.31;5010833;28;20049;-70
2023/01/31 00:29:48;;;;;;;3.03;0.90;;;;;;;7.55;25.38;102214.50;5007001;28;20747;-71
2023/01/31 00:32:18;;;;;;;2.22;1.05;;;;;;;7.52;27.37;102209.16;5012952;28;20382;-71
2023/01/31 00:34:47;;;;;;;2.70;1.10;;;;;;;7.48;25.23;102197.75;5014136;28;20054;-73
2023/01/31 00:37:16;;;;;;;2.25;1.10;;;;;;;7.44;25.96;102194.88;5015037;28;20049;-72
2023/01/31 00:39:44;;;;;;;2.38;0.82;;;;;;;7.39;25.06;102185.97;5012832;28;20046;-70
2023/01/31 00:42:13;;;;;;;4.40;0.98;;;;;;;7.34;25.03;102188.25;5012426;28;20549;-70
2023/01/31 00:44:41;;;;;;;4.25;0.75;;;;;;;7.27;25.98;102186.94;5007647;28;20104;-71
2023/01/31 00:47:10;;;;;;;1.38;0.80;;;;;;;7.20;25.13;102189.91;5011268;28;20057;-70
2023/01/31 00:49:40;;;;;;;2.42;1.00;;;;;;;7.13;26.65;102182.56;5008797;28;20536;-70
2023/01/31 00:52:09;;;;;;;2.40;1.10;;;;;;;7.07;26.93;102175.31;5013614;28;20049;-70
2023/01/31 00:54:38;;;;;;;1.80;0.75;;;;;;;6.95;28.34;102165.91;5009619;28;20049;-70
2023/01/31 00:57:06;;;;;;;1.35;0.80;;;;;;;6.83;29.21;102158.28;5012271;28;20056;-70
2023/01/31 00:59:35;;;;;;;1.88;0.80;;;;;;;6.75;29.04;102151.72;5015121;28;20049;-70
2023/01/31 01:02:03;;;;;;;1.83;0.90;;;;;;;6.66;28.61;102145.13;5012035;28;20117;-70
2023/01/31 01:04:32;;;;;;;1.58;0.77;;;;;;;6.56;28.92;102140.19;5009138;28;20540;-70
2023/01/31 01:07:02;;;;;;;4.47;1.00;;;;;;;6.47;27.83;102129.28;5009216;28;20123;-70
2023/01/31 01:09:31;;;;;;;2.05;0.95;;;;;;;6.36;28.08;102123.38;5006204;28;20042;-69
2023/01/31 01:11:59;;;;;;;1.38;0.70;;;;;;;6.29;28.37;102134.03;5013723;28;20061;-70
2023/01/31 01:14:28;;;;;;;3.35;1.23;;;;;;;6.18;28.28;102137.53;5007514;28;20054;-69
2023/01/31 01:16:57;;;;;;;2.28;0.80;;;;;;;6.08;28.07;102141.16;5013046;28;20066;-70
2023/01/31 01:19:26;;;;;;;3.15;1.20;;;;;;;5.97;28.06;102139.50;5012522;28;20061;-69
2023/01/31 01:21:57;;;;;;;2.58;1.10;;;;;;;5.89;28.23;102138.94;5010949;28;20049;-69
2023/01/31 01:24:28;;;;;;;1.25;0.65;;;;;;;5.79;28.19;102149.34;5005090;28;20049;-69
2023/01/31 01:26:57;;;;;;;1.20;0.80;;;;;;;5.69;28.63;102158.06;5011451;28;20042;-69
2023/01/31 01:29:26;;;;;;;1.10;0.70;;;;;;;5.60;29.46;102154.84;5014002;28;20124;-69
2023/01/31 01:31:54;;;;;;;2.60;1.20;;;;;;;5.53;29.17;102132.97;5011313;28;20412;-69
2023/01/31 01:34:23;;;;;;;2.10;1.25;;;;;;;5.42;28.71;102126.16;5014284;28;20092;-69
2023/01/31 01:36:51;;;;;;;2.50;1.23;;;;;;;5.31;30.13;102122.81;5023601;28;20042;-69
2023/01/31 01:39:20;;;;;;;5.28;1.40;;;;;;;5.26;30.68;102111.34;5011041;28;20326;-70
2023/01/31 01:41:51;;;;;;;2.92;1.40;;;;;;;5.20;31.47;102116.00;5012883;28;20057;-69
2023/01/31 01:44:46;;;;;;;4.78;2.10;;;;;;;5.13;30.83;102117.25;5008884;28;20053;-69
2023/01/31 01:47:21;;;;;;;4.63;2.95;;;;;;;5.07;31.34;102116.81;5009303;28;20240;-70
2023/01/31 01:49:55;;;;;;;4.55;2.20;;;;;;;5.01;32.02;102104.41;5011091;28;20057;-70
2023/01/31 01:52:26;;;;;;;2.97;1.40;;;;;;;4.96;32.65;102112.56;5010834;28;20507;-71
2023/01/31 01:54:59;;;;;;;4.05;1.75;;;;;;;4.88;32.14;102108.50;5005184;28;20074;-70
2023/01/31 01:57:33;;;;;;;9.95;3.00;;;;;;;4.79;32.54;102101.94;5009111;28;20060;-70
2023/01/31 02:00:13;;;;;;;3.78;2.35;;;;;;;4.72;33.29;102101.34;5002062;28;20381;-70
2023/01/31 02:02:42;;;;;;;4.63;1.75;;;;;;;4.67;33.75;102107.81;5010154;28;20108;-70
2023/01/31 02:05:13;;;;;;;4.70;2.20;;;;;;;4.60;33.16;102103.91;5015100;28;20046;-71
2023/01/31 02:07:41;;;;;;;5.93;2.58;;;;;;;4.55;34.12;102102.66;5009499;28;20067;-70
2023/01/31 02:10:16;;;;;;;16.58;2.90;;;;;;;4.50;34.66;102104.88;5000370;28;20045;-69
2023/01/31 02:12:47;;;;;;;15.48;5.35;;;;;;;4.45;33.06;102105.31;5007157;28;20493;-70
2023/01/31 02:15:16;;;;;;;16.98;9.50;;;;;;;4.39;34.20;102111.75;5008411;28;20123;-70
2023/01/31 02:17:44;;;;;;;13.60;6.97;;;;;;;4.34;34.68;102113.06;5006858;28;20047;-71
2023/01/31 02:20:28;;;;;;;13.48;6.13;;;;;;;4.28;34.85;102111.72;5008116;28;20061;-69
2023/01/31 02:23:15;;;;;;;9.98;5.35;;;;;;;4.21;36.09;102100.09;5011449;28;20057;-69
2023/01/31 02:26:05;;;;;;;12.82;4.38;;;;;;;4.12;36.01;102102.88;5004953;28;20045;-69
2023/01/31 02:29:23;;;;;;;8.23;4.32;;;;;;;4.05;36.23;102113.38;5011455;28;20548;-69
2023/01/31 02:32:33;;;;;;;6.22;3.47;;;;;;;3.98;36.59;102108.56;4938494;28;20612;-69
2023/01/31 02:35:12;;;;;;;11.07;3.78;;;;;;;3.91;36.89;102104.63;4983744;28;20058;-68
2023/01/31 02:37:52;;;;;;;8.57;3.10;;;;;;;3.85;36.55;102111.88;4992193;28;20125;-71
2023/01/31 02:40:27;;;;;;;9.13;3.53;;;;;;;3.78;37.41;102112.16;4982508;28;20634;-70
2023/01/31 02:43:07;;;;;;;9.48;2.88;;;;;;;3.71;37.86;102099.63;4989522;28;20112;-69
2023/01/31 02:45:45;;;;;;;8.23;3.65;;;;;;;3.60;41.07;102103.00;4982007;28;20096;-69
2023/01/31 02:48:24;;;;;;;9.30;4.57;;;;;;;3.32;44.81;102083.81;4986681;28;20049;-70
2023/01/31 02:51:04;;;;;;;7.20;3.22;;;;;;;3.18;44.07;102093.69;4990760;28;20698;-69
2023/01/31 02:53:36;;;;;;;8.88;3.47;;;;;;;3.12;43.56;102097.56;4982080;28;20154;-70
2023/01/31 02:56:18;;;;;;;8.05;3.53;;;;;;;3.09;42.97;102097.31;4989361;28;20622;-70
2023/01/31 02:58:51;;;;;;;14.82;5.45;;;;;;;3.07;40.68;102095.38;4986095;28;20050;-72
2023/01/31 03:01:26;;;;;;;11.13;4.82;;;;;;;3.03;41.29;102093.38;4996471;28;20058;-71
2023/01/31 03:03:57;;;;;;;14.70;5.15;;;;;;;3.00;41.29;102087.97;4985329;28;20042;-69
2023/01/31 03:07:02;;;;;;;11.10;4.22;;;;;;;2.97;41.09;102096.28;4991239;28;20053;-69
2023/01/31 03:09:51;;;;;;;8.75;4.13;;;;;;;2.93;41.05;102104.47;4990481;28;20109;-69
2023/01/31 03:12:42;;;;;;;13.88;5.00;;;;;;;2.88;41.21;102100.66;4987077;28;20046;-69
2023/01/31 03:18:35;;;;;;;9.68;4.38;;;;;;;2.80;40.80;102099.16;4932492;28;20238;-69
2023/01/31 03:21:10;;;;;;;15.95;4.22;;;;;;;2.78;41.66;102103.25;4984887;28;20112;-68
2023/01/31 03:23:41;;;;;;;11.45;4.22;;;;;;;2.76;42.00;102097.09;4994453;28;20054;-68
2023/01/31 03:26:12;;;;;;;9.45;3.65;;;;;;;2.66;42.81;102083.56;4988820;28;20205;-68
2023/01/31 03:28:44;;;;;;;8.82;4.25;;;;;;;2.70;42.58;102085.63;4989877;28;20054;-70
2023/01/31 03:31:19;;;;;;;11.93;4.55;;;;;;;2.67;43.60;102075.13;4989555;28;20126;-70
2023/01/31 03:33:57;;;;;;;10.77;4.57;;;;;;;2.65;44.12;102078.31;5009625;28;20093;-71
2023/01/31 03:36:31;;;;;;;10.07;4.25;;;;;;;2.59;43.04;102077.81;5013872;28;20050;-71
2023/01/31 03:39:09;;;;;;;11.75;5.10;;;;;;;2.52;43.50;102076.44;5013580;28;20041;-71
2023/01/31 03:41:52;;;;;;;11.82;4.70;;;;;;;2.49;43.75;102069.38;5006991;28;20072;-71
2023/01/31 03:44:25;;;;;;;;;;;;;;;2.46;44.30;102065.69;5014017;28;20073;-70
2023/01/31 03:46:56;;;;;;;;;;;;;;;2.45;44.94;102063.88;5005386;28;19974;-70
2023/01/31 03:49:28;;;;;;;12.57;5.70;;;;;;;2.44;44.30;102057.00;5011125;28;19922;-69
2023/01/31 03:52:04;;;;;;;9.13;4.10;;;;;;;2.40;44.78;102045.63;5009084;28;20054;-70
2023/01/31 03:54:39;;;;;;;9.73;3.35;;;;;;;2.38;44.90;102046.28;5008083;28;20496;-70
2023/01/31 03:57:15;;;;;;;3.50;2.67;;;;;;;2.38;43.55;102043.72;5005470;28;20561;-70
2023/01/31 03:59:48;;;;;;;2.83;2.03;;;;;;;2.40;39.91;102052.41;5011702;28;20052;-70
2023/01/31 04:02:19;;;;;;;8.50;2.20;;;;;;;2.43;39.55;102055.22;5004224;28;20080;-72
2023/01/31 04:04:51;;;;;;;8.75;1.90;;;;;;;2.46;38.74;102048.69;5012770;28;20539;-72
2023/01/31 04:07:20;;;;;;;3.53;2.10;;;;;;;2.47;37.15;102057.25;5010351;28;20045;-71
2023/01/31 04:09:49;;;;;;;5.50;2.72;;;;;;;2.48;36.58;102065.06;5017605;28;20053;-74
2023/01/31 04:12:19;;;;;;;6.15;1.60;;;;;;;2.53;36.58;102068.00;5010169;28;20042;-71
2023/01/31 04:14:47;;;;;;;4.25;1.92;;;;;;;2.57;36.25;102067.47;5009913;28;20528;-70
2023/01/31 04:17:16;;;;;;;2.63;1.35;;;;;;;2.60;36.50;102066.84;5010654;28;20125;-72
2023/01/31 04:19:45;;;;;;;4.22;1.98;;;;;;;2.61;36.93;102064.41;5010398;28;20073;-72
2023/01/31 04:22:13;;;;;;;3.00;1.55;;;;;;;2.65;36.35;102074.09;5007196;28;20611;-71
2023/01/31 04:24:42;;;;;;;5.13;1.38;;;;;;;2.67;35.68;102067.47;5002646;28;20485;-72
2023/01/31 04:27:10;;;;;;;1.60;0.85;;;;;;;2.64;35.53;102069.78;5006137;28;20053;-73
2023/01/31 04:29:41;;;;;;;5.07;1.40;;;;;;;2.60;35.38;102075.38;5001900;28;20051;-73
2023/01/31 04:32:09;;;;;;;3.40;1.48;;;;;;;2.62;36.00;102084.09;5006431;28;20101;-73
2023/01/31 04:34:38;;;;;;;4.45;1.88;;;;;;;2.62;35.44;102089.19;5013489;28;20419;-70
2023/01/31 04:37:07;;;;;;;7.20;1.73;;;;;;;2.65;34.63;102101.31;5013178;28;20046;-70
2023/01/31 04:39:35;;;;;;;1.60;1.20;;;;;;;2.65;34.83;102104.75;5007695;28;20125;-69
2023/01/31 04:42:04;;;;;;;2.03;1.10;;;;;;;2.66;35.68;102098.91;5005605;28;20053;-69
2023/01/31 04:44:32;;;;;;;2.97;1.48;;;;;;;2.64;35.37;102097.88;5010135;28;20117;-69
2023/01/31 04:47:03;;;;;;;3.85;1.13;;;;;;;2.63;35.37;102105.41;5013001;28;20640;-70
2023/01/31 04:49:31;;;;;;;2.15;0.82;;;;;;;2.63;36.22;102106.31;5010755;28;20077;-69
2023/01/31 04:52:00;;;;;;;2.63;1.27;;;;;;;2.64;35.70;102109.78;5010823;28;20557;-69
2023/01/31 04:54:28;;;;;;;3.72;0.73;;;;;;;2.63;34.59;102113.06;5005730;28;20064;-69
2023/01/31 04:56:57;;;;;;;2.05;1.17;;;;;;;2.64;33.45;102115.78;5012463;28;20057;-72
2023/01/31 04:59:25;;;;;;;2.72;1.15;;;;;;;2.64;34.87;102118.31;5012396;28;20054;-70
2023/01/31 05:01:54;;;;;;;5.97;2.58;;;;;;;2.63;36.18;102116.53;5002856;28;20538;-69
2023/01/31 05:04:25;;;;;;;12.07;4.30;;;;;;;2.60;38.35;102116.28;5018250;28;20054;-69
2023/01/31 05:06:55;;;;;;;8.80;3.90;;;;;;;2.56;38.55;102111.66;5011734;28;20042;-70
2023/01/31 05:09:30;;;;;;;13.50;5.90;;;;;;;2.50;39.60;102116.28;5013424;28;20045;-70
2023/01/31 05:11:59;;;;;;;12.18;4.95;;;;;;;2.43;38.91;102119.09;5005499;28;20058;-70
2023/01/31 05:14:27;;;;;;;9.65;4.38;;;;;;;2.34;40.07;102106.44;5010588;28;20053;-70
2023/01/31 05:16:56;;;;;;;13.23;4.50;;;;;;;2.29;40.40;102110.25;5009223;28;20057;-70
2023/01/31 05:19:26;;;;;;;13.57;4.80;;;;;;;2.25;40.63;102119.31;5013305;28;20396;-70
2023/01/31 05:21:58;;;;;;;11.23;4.80;;;;;;;2.25;41.69;102115.88;5014427;28;20046;-71
2023/01/31 05:24:28;;;;;;;8.80;3.97;;;;;;;2.26;40.33;102132.97;5007231;28;20495;-70
2023/01/31 05:26:59;;;;;;;3.13;2.35;;;;;;;2.24;37.35;102130.28;5011627;28;20105;-71
2023/01/31 05:29:27;;;;;;;4.93;2.55;;;;;;;2.21;39.29;102129.16;5012210;28;20050;-69
2023/01/31 05:31:58;;;;;;;5.50;2.13;;;;;;;2.20;40.88;102130.81;5008647;28;20046;-71
2023/01/31 05:34:31;;;;;;;11.18;1.92;;;;;;;2.22;39.51;102141.13;5011467;28;20664;-69
2023/01/31 05:37:00;;;;;;;3.47;1.50;;;;;;;2.20;40.19;102130.81;5000351;28;20128;-70
2023/01/31 05:39:29;;;;;;;7.50;1.27;;;;;;;2.20;39.49;102133.38;5009860;28;20050;-69
2023/01/31 05:41:57;;;;;;;3.50;1.25;;;;;;;2.21;38.60;102122.38;5015934;28;20550;-70
2023/01/31 05:44:26;;;;;;;2.35;1.23;;;;;;;2.20;37.69;102123.16;5006631;28;20550;-70
2023/01/31 05:46:54;;;;;;;1.35;0.95;;;;;;;2.13;34.52;102120.84;5013277;28;20050;-70
2023/01/31 05:49:23;;;;;;;1.00;0.65;;;;;;;2.06;36.41;102113.41;5010218;28;20048;-71
2023/01/31 05:51:53;;;;;;;1.75;0.95;;;;;;;2.00;36.39;102105.25;5011360;28;20539;-70
2023/01/31 05:54:22;;;;;;;1.08;0.65;;;;;;;1.98;37.73;102105.09;5004450;28;20050;-69
2023/01/31 05:56:50;;;;;;;1.58;0.90;;;;;;;2.02;37.93;102103.72;5014482;28;20054;-69
2023/01/31 05:59:19;;;;;;;3.95;1.13;;;;;;;2.05;38.40;102101.41;5008514;28;20071;-69
2023/01/31 06:01:47;;;;;;;0.68;0.63;;;;;;;2.05;38.00;102101.41;5014068;28;20119;-68
2023/01/31 06:04:16;;;;;;;1.67;0.95;;;;;;;2.05;37.64;102103.97;5010458;28;20049;-68
2023/01/31 06:06:45;;;;;;;1.38;0.80;;;;;;;2.05;37.14;102109.06;5005010;28;20503;-69
2023/01/31 06:09:15;;;;;;;1.35;0.85;;;;;;;2.06;38.09;102113.41;5010191;28;20102;-69
2023/01/31 06:11:43;;;;;;;3.53;0.93;;;;;;;2.07;37.18;102116.09;5007110;28;20069;-68
2023/01/31 06:14:12;;;;;;;1.45;0.85;;;;;;;2.10;38.04;102118.00;5009713;28;20050;-68
2023/01/31 06:16:41;;;;;;;3.25;1.30;;;;;;;2.11;36.98;102122.38;5012553;28;20060;-69
2023/01/31 06:19:09;;;;;;;2.50;0.98;;;;;;;2.14;37.58;102111.53;5012427;28;20115;-69
2023/01/31 06:21:38;;;;;;;2.28;1.20;;;;;;;2.12;37.78;102096.06;5008326;28;20045;-70
2023/01/31 06:24:07;;;;;;;1.63;1.00;;;;;;;2.15;37.11;102109.06;5012208;28;20046;-69
2023/01/31 06:26:38;;;;;;;1.40;0.75;;;;;;;2.17;36.39;102107.56;5017641;28;20057;-69
2023/01/31 06:29:06;;;;;;;2.08;1.30;;;;;;;2.18;37.59;102111.91;5008203;28;20056;-69
2023/01/31 06:31:35;;;;;;;7.97;2.90;;;;;;;2.18;38.26;102124.69;5008202;28;20427;-69
2023/01/31 06:34:03;;;;;;;6.00;2.58;;;;;;;2.17;40.88;102117.78;5010548;28;20064;-69
2023/01/31 06:36:33;;;;;;;9.25;3.70;;;;;;;2.14;42.09;102121.75;5012416;28;20061;-69
2023/01/31 06:39:02;;;;;;;11.35;3.95;;;;;;;2.13;42.08;102115.75;5008612;28;20046;-68
2023/01/31 06:41:32;;;;;;;11.07;4.45;;;;;;;2.11;42.30;102107.06;5016813;28;20065;-69
2023/01/31 06:44:02;;;;;;;13.20;4.05;;;;;;;2.09;43.60;102100.91;5009890;28;20060;-68
2023/01/31 06:46:30;;;;;;;7.55;3.47;;;;;;;2.05;43.61;102107.41;5006961;28;20061;-69
2023/01/31 06:48:59;;;;;;;8.27;3.40;;;;;;;1.95;42.94;102093.72;5010659;28;20050;-68
2023/01/31 06:51:27;;;;;;;12.48;3.55;;;;;;;1.86;44.16;102094.75;5010912;28;20068;-68
2023/01/31 06:53:56;;;;;;;8.05;3.63;;;;;;;1.83;44.44;102091.00;5016081;28;20077;-69
2023/01/31 06:56:25;;;;;;;15.35;4.15;;;;;;;1.79;43.56;102094.09;5005831;28;20508;-69
2023/01/31 06:58:53;;;;;;;9.75;3.53;;;;;;;1.74;44.23;102103.91;5014759;28;20046;-69
2023/01/31 07:01:25;;;;;;;9.05;3.78;;;;;;;1.71;44.75;102103.63;5006737;28;20057;-68
2023/01/31 07:03:55;;;;;;;9.00;3.30;;;;;;;1.71;46.15;102100.19;5010662;28;20049;-68
2023/01/31 07:06:24;;;;;;;10.20;3.63;;;;;;;1.70;45.20;102101.84;5013467;28;20495;-69
2023/01/31 07:08:52;;;;;;;9.15;3.03;;;;;;;1.70;45.33;102096.75;5014118;28;20161;-68
2023/01/31 07:11:21;;;;;;;13.02;4.47;;;;;;;1.64;45.44;102091.97;5013204;28;20042;-68
2023/01/31 07:13:49;;;;;;;3.45;2.30;;;;;;;1.67;47.01;102101.56;5009420;28;20096;-68
2023/01/31 07:16:18;;;;;;;7.18;2.65;;;;;;;1.59;46.08;102092.34;5013830;28;20582;-69
2023/01/31 07:18:48;;;;;;;6.55;2.42;;;;;;;1.64;45.95;102101.31;5010220;28;20056;-69
2023/01/31 07:21:17;;;;;;;14.75;3.67;;;;;;;1.62;47.01;102102.81;5003544;28;20523;-68
2023/01/31 07:23:45;;;;;;;7.18;2.95;;;;;;;1.53;46.60;102094.38;5013921;28;20064;-68
2023/01/31 07:26:14;;;;;;;4.38;2.30;;;;;;;1.43;47.82;102088.47;5015487;28;20045;-69
2023/01/31 07:28:43;;;;;;;6.05;2.55;;;;;;;1.39;48.09;102091.50;5008210;28;20046;-68
2023/01/31 07:31:14;;;;;;;7.85;2.75;;;;;;;1.37;48.45;102087.03;5018643;28;20049;-69
2023/01/31 07:33:49;;;;;;;6.30;2.95;;;;;;;1.36;47.47;102091.25;5015867;28;20057;-70
2023/01/31 07:36:25;;;;;;;9.27;4.15;;;;;;;1.36;47.69;102098.00;5020274;28;20049;-69
2023/01/31 07:38:56;;;;;;;7.57;3.38;;;;;;;1.33;47.97;102103.72;5008163;28;20046;-69
2023/01/31 07:41:24;;;;;;;9.63;3.55;;;;;;;1.30;48.87;102108.53;5016229;28;20124;-69
2023/01/31 07:43:53;;;;;;;7.13;3.38;;;;;;;1.28;49.36;102107.50;5015319;28;20050;-69
2023/01/31 07:46:22;;;;;;;6.85;3.72;;;;;;;1.28;49.42;102099.84;5014183;28;20264;-70
2023/01/31 07:48:50;;;;;;;8.38;3.83;;;;;;;1.26;49.30;102091.22;5016699;28;20566;-69
2023/01/31 07:51:21;;;;;;;6.28;3.38;;;;;;;1.27;49.08;102092.09;5013653;28;20056;-68
2023/01/31 07:53:49;;;;;;;8.70;3.63;;;;;;;1.26;48.91;102088.66;5013461;28;20124;-68
2023/01/31 07:56:19;;;;;;;9.27;3.42;;;;;;;1.25;49.19;102082.63;5012643;28;20046;-68
2023/01/31 07:58:49;;;;;;;13.25;3.70;;;;;;;1.25;50.29;102094.50;5013584;28;20049;-68
2023/01/31 08:04:04;;;;;;;10.38;3.42;;;;;;;1.02;51.48;102072.06;5010683;28;20057;-68
2023/01/31 08:06:35;;;;;;;8.18;3.15;;;;;;;0.99;51.70;102067.59;5012423;28;20046;-67
2023/01/31 08:09:04;;;;;;;11.88;3.55;;;;;;;0.97;51.80;102061.47;5011477;28;20578;-68
2023/01/31 08:11:32;;;;;;;8.02;3.08;;;;;;;0.98;51.72;102055.59;4997474;28;21013;-68
2023/01/31 08:14:01;;;;;;;7.50;2.80;;;;;;;0.92;51.39;102044.88;5013093;28;20048;-68
2023/01/31 08:16:30;;;;;;;10.40;3.40;;;;;;;0.80;52.18;102046.31;5011710;28;20038;-68
2023/01/31 08:18:59;;;;;;;4.75;3.00;;;;;;;0.75;51.81;102053.56;5015241;28;20162;-68
2023/01/31 08:21:27;;;;;;;8.45;3.80;;;;;;;0.76;51.16;102057.03;5012135;28;20507;-68
2023/01/31 08:23:58;;;;;;;10.82;3.58;;;;;;;0.76;51.24;102065.56;5011803;28;20056;-68
2023/01/31 08:26:26;;;;;;;5.95;2.97;;;;;;;0.76;51.52;102074.84;5011815;28;20053;-68
2023/01/31 08:28:55;;;;;;;8.23;3.78;;;;;;;0.76;51.16;102082.50;5011061;28;20065;-68
2023/01/31 08:31:25;;;;;;;8.57;3.17;;;;;;;0.72;51.35;102088.06;5011202;28;20111;-68
2023/01/31 08:33:54;;;;;;;9.02;3.22;;;;;;;0.71;52.34;102093.91;5012132;28;20873;-68
2023/01/31 08:36:24;;;;;;;12.60;3.10;;;;;;;0.71;51.69;102089.72;5013908;28;20041;-68
2023/01/31 08:38:54;;;;;;;10.32;4.10;;;;;;;0.71;52.04;102076.06;5011967;28;20049;-68
2023/01/31 08:41:26;;;;;;;3.90;2.10;;;;;;;0.68;51.47;102065.63;5011716;28;20046;-68
2023/01/31 08:43:56;;;;;;;7.73;3.07;;;;;;;0.62;51.92;102061.75;5003777;28;20058;-68
2023/01/31 08:46:25;;;;;;;5.97;2.47;;;;;;;0.56;53.66;102061.19;5016112;28;20714;-68
2023/01/31 08:48:54;;;;;;;11.85;3.08;;;;;;;0.52;54.22;102056.56;5013700;28;20049;-68
2023/01/31 08:51:23;;;;;;;16.75;4.20;;;;;;;0.53;54.04;102049.84;5011236;28;21128;-68
2023/01/31 08:53:52;;;;;;;6.57;2.53;;;;;;;0.53;54.72;102060.03;5008223;28;20054;-67
2023/01/31 08:56:24;;;;;;;8.48;2.92;;;;;;;0.53;54.84;102068.56;5010033;28;20053;-69
2023/01/31 08:58:55;;;;;;;9.45;3.45;;;;;;;0.49;55.08;102052.88;5012102;28;20061;-68
2023/01/31 09:01:24;;;;;;;10.30;3.90;;;;;;;0.54;54.21;102044.88;5016934;28;20561;-68
2023/01/31 09:03:55;;;;;;;7.03;3.30;;;;;;;0.56;54.71;102051.00;5013165;28;20499;-68
2023/01/31 09:06:25;;;;;;;6.90;4.03;;;;;;;0.57;54.56;102057.00;5008491;28;20320;-68
2023/01/31 09:08:55;;;;;;;7.25;3.60;;;;;;;0.57;54.55;102064.63;5010499;28;20681;-69
2023/01/31 09:11:23;;;;;;;8.63;3.45;;;;;;;0.55;54.12;102068.69;5012844;28;20132;-68
2023/01/31 09:13:54;;;;;;;9.32;3.40;;;;;;;0.55;53.81;102074.69;5011157;28;20058;-68
2023/01/31 09:16:22;;;;;;;5.70;2.53;;;;;;;0.54;53.03;102072.00;5013159;28;20042;-68
2023/01/31 09:18:51;;;;;;;5.50;3.28;;;;;;;0.52;53.39;102066.75;5009963;28;20050;-68
2023/01/31 09:21:21;;;;;;;8.82;2.78;;;;;;;0.50;53.40;102075.03;5010520;28;20057;-69
2023/01/31 09:23:50;;;;;;;9.00;3.40;;;;;;;0.48;53.87;102077.44;5009469;28;20110;-68
2023/01/31 09:26:18;;;;;;;6.30;2.90;;;;;;;0.41;53.51;102076.00;5010499;28;20520;-68
2023/01/31 09:28:48;;;;;;;8.60;3.70;;;;;;;0.36;53.88;102072.13;5013450;28;20065;-68
2023/01/31 09:31:20;;;;;;;5.72;2.95;;;;;;;0.31;57.51;102073.34;5012224;28;20053;-68
2023/01/31 09:33:48;;;;;;;5.82;2.35;;;;;;;0.26;56.84;102083.88;5012316;28;20100;-68
2023/01/31 09:36:19;;;;;;;22.75;2.65;;;;;;;0.19;56.93;102070.56;5005906;28;20039;-69
2023/01/31 09:38:48;;;;;;;7.00;2.75;;;;;;;0.16;56.38;102070.31;5005393;28;20363;-68
2023/01/31 09:41:24;;;;;;;5.32;2.38;;;;;;;0.15;56.47;102065.94;5006878;28;20049;-68
2023/01/31 09:43:57;;;;;;;9.15;3.22;;;;;;;0.19;57.31;102056.97;5009183;28;20490;-67
2023/01/31 09:46:33;;;;;;;6.97;2.60;;;;;;;0.18;57.18;102053.53;5008699;28;20042;-68
2023/01/31 09:49:04;;;;;;;4.25;1.88;;;;;;;0.23;57.78;102058.13;5010781;28;20547;-68
2023/01/31 09:51:35;;;;;;;6.50;1.88;;;;;;;0.24;55.08;102067.56;5010442;28;20038;-68
2023/01/31 09:54:06;;;;;;;5.43;2.22;;;;;;;0.25;56.09;102067.69;5008235;28;20069;-68
2023/01/31 09:56:43;;;;;;;7.18;3.10;;;;;;;0.25;55.92;102059.16;5011587;28;20052;-68
2023/01/31 09:59:21;;;;;;;7.57;2.92;;;;;;;0.24;55.64;102055.72;5006358;28;20054;-68
2023/01/31 10:02:03;;;;;;;7.57;3.15;;;;;;;0.24;55.08;102049.75;5003852;28;20049;-68
2023/01/31 10:04:49;;;;;;;9.65;2.80;;;;;;;0.23;54.33;102050.47;5011563;28;20105;-68
2023/01/31 10:07:25;;;;;;;5.20;3.05;;;;;;;0.22;54.47;102053.81;5010256;28;20053;-68
2023/01/31 10:10:00;;;;;;;5.82;2.78;;;;;;;0.16;54.67;102049.94;5002623;28;20100;-68
2023/01/31 10:12:34;;;;;;;5.88;2.88;;;;;;;0.13;53.96;102047.09;5009052;28;20500;-68
2023/01/31 10:15:07;;;;;;;6.93;2.47;;;;;;;0.11;54.23;102055.34;5010087;28;20119;-68
2023/01/31 10:17:42;;;;;;;5.13;2.22;;;;;;;0.09;54.52;102057.78;5009832;28;20733;-69
2023/01/31 10:20:20;;;;;;;6.85;2.53;;;;;;;0.08;55.54;102063.59;5009709;28;20128;-68
2023/01/31 10:22:56;;;;;;;10.30;3.80;;;;;;;0.05;55.75;102063.31;5009113;28;20046;-68
2023/01/31 10:25:28;;;;;;;12.45;4.35;;;;;;;0.02;55.84;102063.03;5004971;28;20079;-69
2023/01/31 10:28:02;;;;;;;12.80;4.93;;;;;;;-0.01;56.41;102066.19;5011338;28;20682;-68
2023/01/31 10:30:42;;;;;;;9.93;5.32;;;;;;;-0.03;57.02;102069.34;5009961;28;20046;-68
2023/01/31 10:33:23;;;;;;;10.02;4.88;;;;;;;-0.05;56.99;102068.28;5011327;28;20050;-68
2023/01/31 10:35:54;;;;;;;12.77;4.75;;;;;;;-0.10;56.66;102064.44;5007951;28;20465;-68
2023/01/31 10:38:28;;;;;;;14.00;5.10;;;;;;;-0.13;56.74;102066.72;5010173;28;20041;-68
2023/01/31 10:41:02;;;;;;;14.38;4.70;;;;;;;-0.15;56.34;102073.31;5010923;28;20100;-68
2023/01/31 10:43:38;;;;;;;7.75;3.90;;;;;;;-0.25;56.94;102059.72;5009623;28;20053;-68
2023/01/31 10:46:12;;;;;;;9.65;3.97;;;;;;;-0.21;56.69;102063.44;5007358;28;20050;-67
2023/01/31 10:48:44;;;;;;;7.82;4.03;;;;;;;-0.24;57.57;102064.03;5001860;28;20089;-67
2023/01/31 10:51:25;;;;;;;10.55;3.72;;;;;;;-0.33;57.95;102047.91;5004404;28;20559;-68
2023/01/31 10:54:11;;;;;;;9.52;4.53;;;;;;;-0.30;58.73;102055.84;5004421;28;20049;-67
2023/01/31 10:56:44;;;;;;;10.52;4.75;;;;;;;-0.33;59.96;102065.72;5005687;28;20042;-68
2023/01/31 10:59:20;;;;;;;13.32;3.75;;;;;;;-0.37;58.93;102066.19;5009508;28;20082;-67
2023/01/31 11:01:49;;;;;;;9.73;3.60;;;;;;;-0.42;57.71;102062.31;5011918;28;20459;-68
2023/01/31 11:04:29;;;;;;;10.35;3.40;;;;;;;-0.47;57.10;102064.44;5011228;28;20515;-68
2023/01/31 11:07:00;;;;;;;8.25;3.97;;;;;;;-0.50;57.30;102058.16;5005617;28;20435;-67
2023/01/31 11:09:33;;;;;;;9.25;4.25;;;;;;;-0.52;57.93;102057.13;5006641;28;20057;-67
2023/01/31 11:12:03;;;;;;;6.85;3.42;;;;;;;-0.55;57.44;102073.00;5008096;28;20519;-67
2023/01/31 11:14:32;;;;;;;11.52;4.18;;;;;;;-0.59;57.67;102062.38;5007950;28;20050;-68
2023/01/31 11:17:05;;;;;;;14.98;3.30;;;;;;;-0.63;58.83;102062.06;5007078;28;20069;-68
2023/01/31 11:19:41;;;;;;;6.40;2.95;;;;;;;-0.64;58.14;102055.22;5009731;28;20054;-67
2023/01/31 11:22:17;;;;;;;6.38;2.70;;;;;;;-0.64;58.48;102054.31;5004133;28;20049;-68
2023/01/31 11:24:49;;;;;;;6.70;2.67;;;;;;;-0.66;58.17;102050.75;5003845;28;20381;-68
2023/01/31 11:27:27;;;;;;;6.37;2.43;;;;;;;-0.69;57.47;102052.97;5007072;28;20065;-68
2023/01/31 11:29:58;;;;;;;9.27;2.70;;;;;;;-0.77;57.54;102042.06;5004199;28;20283;-67
2023/01/31 11:32:31;;;;;;;7.68;2.65;;;;;;;-0.82;58.15;102040.75;5011938;28;20048;-68
2023/01/31 11:35:02;;;;;;;;;;;;;;;-0.88;58.88;102032.53;5009481;28;20132;-68
2023/01/31 11:37:31;;;;;;;6.97;3.03;;;;;;;-0.90;59.57;102031.50;5004953;28;19921;-67
2023/01/31 11:40:01;;;;;;;5.63;2.35;;;;;;;-0.92;59.30;102028.78;5006279;28;20050;-67
2023/01/31 11:42:29;;;;;;;7.20;2.97;;;;;;;-0.96;59.52;102023.25;5002937;28;20058;-67
2023/01/31 11:45:06;;;;;;;4.10;2.35;;;;;;;-0.96;59.90;102035.97;5008999;28;20471;-68
2023/01/31 11:47:42;;;;;;;8.88;2.97;;;;;;;-0.97;59.25;102026.56;5008114;28;20061;-67
2023/01/31 11:50:21;;;;;;;4.43;1.70;;;;;;;-1.00;59.35;102028.81;5007008;28;20053;-69
2023/01/31 11:52:57;;;;;;;10.20;2.92;;;;;;;-1.02;60.14;102025.25;5000067;28;20054;-68
2023/01/31 11:55:27;;;;;;;4.32;2.60;;;;;;;-1.03;60.49;102020.88;5014109;28;20053;-67
2023/01/31 11:57:59;;;;;;;7.03;2.42;;;;;;;-1.03;60.98;102036.13;5014288;28;20484;-68